Flight Track Log - Related Links

Times and Time Zones

All times are in EST time to prevent confusion due to time zone crossing. See the FIN666 flight status page for this flight to view local times or setup timezone preferences in your user account.

Time Position Orientation Groundspeed Altitude Reporting Facility
EST Latitude Longitude Course Direction KTS MPH feet Rate Location/Type
Fri 07:28:00 AM 55.8520 13.1400 49° Northeast  Level Estimated
Fri 07:29:00 AM 55.9296 13.3027 50° Northeast  Level Estimated
Fri 07:30:00 AM 56.0070 13.4660 50° Northeast  Level Estimated
Fri 07:31:00 AM 56.0842 13.6299 50° Northeast  Level Estimated
Fri 07:32:00 AM 56.1674 13.8078 50° Northeast  Level Estimated
Fri 07:33:00 AM 56.2503 13.9865 50° Northeast  Level Estimated
Fri 07:34:00 AM 56.3330 14.1660 50° Northeast  Level Estimated
Fri 07:35:00 AM 56.4153 14.3462 50° Northeast  Level Estimated
Fri 07:36:00 AM 56.4975 14.5272 51° Northeast  Level Estimated
Fri 07:37:00 AM 56.5793 14.7090 51° Northeast  Level Estimated
Fri 07:38:00 AM 56.6609 14.8916 51° Northeast  Level Estimated
Fri 07:39:00 AM 56.7422 15.0750 51° Northeast  Level Estimated
Fri 07:40:00 AM 56.8233 15.2592 51° Northeast  Level Estimated
Fri 07:41:00 AM 56.9041 15.4441 51° Northeast  Level Estimated
Fri 07:42:00 AM 56.9846 15.6299 51° Northeast  Level Estimated
Fri 07:43:00 AM 57.0648 15.8165 52° Northeast  Level Estimated
Fri 07:44:00 AM 57.1448 16.0039 52° Northeast  Level Estimated
Fri 07:45:00 AM 57.2244 16.1921 52° Northeast  Level Estimated
Fri 07:46:00 AM 57.3038 16.3811 52° Northeast  Level Estimated
Fri 07:47:00 AM 57.3829 16.5709 52° Northeast  Level Estimated
Fri 07:48:00 AM 57.4618 16.7615 52° Northeast  Level Estimated
Fri 07:49:00 AM 57.5403 16.9530 53° Northeast  Level Estimated
Fri 07:50:00 AM 57.6185 17.1453 53° Northeast  Level Estimated
Fri 07:51:00 AM 57.6965 17.3384 53° Northeast  Level Estimated
Fri 07:52:00 AM 57.7741 17.5324 53° Northeast  Level Estimated
Fri 07:53:00 AM 57.8515 17.7271 53° Northeast  Level Estimated
Fri 07:54:00 AM 57.9285 17.9228 53° Northeast  Level Estimated
Fri 07:55:00 AM 58.0053 18.1192 54° Northeast  Level Estimated
Fri 07:56:00 AM 58.0817 18.3165 54° Northeast  Level Estimated
Fri 07:57:00 AM 58.1579 18.5147 54° Northeast  Level Estimated
Fri 07:58:00 AM 58.2337 18.7137 54° Northeast  Level Estimated
Fri 07:59:00 AM 58.3092 18.9135 54° Northeast  Level Estimated
Fri 08:00:00 AM 58.3844 19.1142 54° Northeast  Level Estimated
Fri 08:01:00 AM 58.4593 19.3158 55° Northeast  Level Estimated
Fri 08:02:00 AM 58.5339 19.5182 55° Northeast  Level Estimated
Fri 08:03:00 AM 58.6082 19.7215 55° Northeast  Level Estimated
Fri 08:04:00 AM 58.6821 19.9256 55° Northeast  Level Estimated
Fri 08:05:00 AM 58.7557 20.1306 55° Northeast  Level Estimated
Fri 08:06:00 AM 58.8290 20.3365 55° Northeast  Level Estimated
Fri 08:07:00 AM 58.9019 20.5432 56° Northeast  Level Estimated
Fri 08:08:00 AM 58.9746 20.7509 56° Northeast  Level Estimated
Fri 08:09:00 AM 59.0468 20.9594 56° Northeast  Level Estimated
Fri 08:10:00 AM 59.1166 21.1622 56° Northeast  Level Estimated
Fri 08:11:00 AM 59.1860 21.3658 56° Northeast  Level Estimated
Fri 08:12:00 AM 59.2550 21.5703 56° Northeast  Level Estimated
Fri 08:13:00 AM 59.3238 21.7756 57° Northeast  Level Estimated
Fri 08:14:00 AM 59.3922 21.9817 57° Northeast  Level Estimated
Fri 08:15:00 AM 59.4603 22.1886 57° Northeast  Level Estimated
Fri 08:16:00 AM 59.5281 22.3964 57° Northeast  Level Estimated
Fri 08:17:00 AM 59.5955 22.6050 57° Northeast  Level Estimated
Fri 08:18:00 AM 59.6626 22.8145 58° Northeast  Level Estimated
Fri 08:19:00 AM 59.7294 23.0248 58° Northeast  Level Estimated
Fri 08:20:00 AM 59.7958 23.2359 58° Northeast  Level Estimated
Fri 08:21:00 AM 59.8619 23.4479 58° Northeast  Level Estimated
Fri 08:22:00 AM 59.9277 23.6607 58° Northeast  Level Estimated
Fri 08:23:00 AM 59.9931 23.8744 58° Northeast  Level Estimated
Fri 08:24:00 AM 60.0582 24.0889 59° Northeast  Level Estimated
Fri 08:25:00 AM 60.1229 24.3043 59° Northeast  Level Estimated
Fri 08:26:00 AM 60.1872 24.5205 59° Northeast  Level Estimated
Fri 08:27:00 AM 60.2513 24.7375 59° Northeast  Level Estimated
Fri 08:28:00 AM 60.3149 24.9554 59° Northeast  Level Estimated
Fri 08:29:00 AM 60.3172 24.9633 60° Northeast  Level Estimated
Fri 08:30:00 AM 60.3172 24.9633 37° Northeast  Level Estimated
Fri 08:31:00 AM 60.3172 24.9633 37° Northeast  Level Estimated
Fri 08:32:00 AM 60.3172 24.9633 37° Northeast  Level Estimated
Fri 08:33:00 AM 60.3172 24.9633 37° Northeast  Level Estimated
Fri 08:34:00 AM 60.3172 24.9633 37° Northeast  Level Estimated
Fri 08:35:00 AM 60.3172 24.9633 37° Northeast  Level Estimated
Fri 08:36:00 AM 60.3172 24.9633 37° Northeast  Level Estimated
Fri 08:37:00 AM 60.3172 24.9633 37° Northeast  Level Estimated
Fri 08:38:00 AM 60.3172 24.9633 37° Northeast  Level Estimated
Fri 08:39:00 AM 60.3172 24.9633 37° Northeast  Level Estimated
Fri 08:40:00 AM 60.3172 24.9633 37° Northeast  Level Estimated
Fri 08:41:00 AM 60.3172 24.9633 37° Northeast  Level Estimated
Fri 08:42:00 AM 60.3172 24.9633 37° Northeast  Level Estimated
Fri 08:43:00 AM 60.3172 24.9633 37° Northeast  Level Estimated
Fri 08:44:00 AM 60.3172 24.9633 37° Northeast  Level Estimated
Fri 08:45:00 AM 60.3172 24.9633 37° Northeast  Level Estimated
Fri 08:46:00 AM 60.3172 24.9633 37° Northeast  Level Estimated

Login

Don't have an account? Register now (free) for customized features, flight alerts, and more!